Flight Track Log - Related Links

Times and Time Zones

All times are in EDT time to prevent confusion due to time zone crossing. See the DAL2163 flight status page for this flight to view local times or setup timezone preferences in your user account.

Time Position Orientation Groundspeed Altitude Reporting Facility
EDT Latitude Longitude Course Direction KTS MPH feet Rate Location/Type
Tue 06:25:52 AM 38.8167 -77.0333 322° Northwest 171 197 1,900  Level Potomac TRACON
Tue 06:26:40 AM 38.7667 -77.0333 180° South 227 261 4,300 1,722 Climbing Potomac TRACON
Tue 06:27:40 AM 38.7500 -77.1000 252° West 248 285 5,000 2,296 Climbing Potomac TRACON
Tue 06:28:00 AM 39.1292 -77.2896 339° North  Level FlightAware Approximate
Tue 06:28:35 AM 38.7500 -77.1833 270° West 263 303 8,700  Level Potomac TRACON
Tue 06:29:00 AM 39.2204 -77.3793 326° Northwest  Level FlightAware Approximate
Tue 06:29:35 AM 38.8167 -77.2500 322° Northwest 350 403 11,400  Level Potomac TRACON
Tue 06:30:00 AM 39.3190 -77.4618 328° Northwest  Level FlightAware Approximate
Tue 06:30:41 AM 38.9167 -77.3167 333° Northwest 380 437 14,600  Level Potomac TRACON
Tue 06:31:00 AM 39.4153 -77.5486 322° Northwest  Level FlightAware Approximate
Tue 06:33:03 AM 39.1469 -77.4517 336° Northwest 419 482 16,100  Level Washington Center
Tue 06:34:03 AM 39.2436 -77.5425 324° Northwest 414 476 16,900 1,438 Climbing Washington Center
Tue 06:35:04 AM 39.3358 -77.6417 320° Northwest 424 488 19,000 2,132 Climbing Washington Center
Tue 06:36:04 AM 39.4319 -77.7464 320° Northwest 440 506 21,200 2,773 Climbing Washington Center
Tue 06:37:03 AM 39.5278 -77.8542 319° Northwest 452 520 24,500 2,924 Climbing Washington Center
Tue 06:38:03 AM 39.5733 -77.9769 296° West 411 473 27,000 2,063 Climbing Washington Center
Tue 06:39:11 AM 39.6197 -78.1333 291° West 391 450 28,900 1,395 Climbing Cleveland Center
Tue 06:40:12 AM 39.6594 -78.2683 291° West 399 459 30,000 541 Climbing Cleveland Center
Tue 06:41:13 AM 39.6997 -78.4086 291° West 410 472 30,000  Level Cleveland Center
Tue 06:42:14 AM 39.7400 -78.5492 290° West 413 475 30,000  Level Cleveland Center
Tue 06:43:15 AM 39.7950 -78.6853 298° West 426 490 30,000  Level Cleveland Center
Tue 06:44:16 AM 39.8603 -78.8164 303° West 434 499 30,000  Level Cleveland Center
Tue 06:45:17 AM 39.9278 -78.9647 301° West 433 498 30,000  Level Cleveland Center
Tue 06:46:18 AM 39.9900 -79.0983 301° West 433 498 30,000  Level Cleveland Center
Tue 06:47:19 AM 40.0558 -79.2433 301° West 433 498 30,000  Level Cleveland Center
Tue 06:48:21 AM 40.1125 -79.3678 301° West 433 498 30,000  Level Cleveland Center
Tue 06:49:22 AM 40.1756 -79.5028 301° West 435 501 30,000  Level Cleveland Center
Tue 06:50:23 AM 40.2400 -79.6411 301° West 441 507 30,000  Level Cleveland Center
Tue 06:51:24 AM 40.3028 -79.7783 301° West 441 507 30,000  Level Cleveland Center
Tue 06:52:25 AM 40.3789 -79.9436 301° West 442 509 30,000  Level Cleveland Center
Tue 06:53:27 AM 40.4361 -80.0658 302° West 444 511 30,000  Level Cleveland Center
Tue 06:54:28 AM 40.4997 -80.2061 301° West 448 516 30,000  Level Cleveland Center
Tue 06:55:29 AM 40.5633 -80.3481 301° West 437 503 30,000  Level Cleveland Center
Tue 06:56:30 AM 40.6267 -80.4869 301° West 435 501 30,000  Level Cleveland Center
Tue 06:57:32 AM 40.6889 -80.6261 301° West 435 501 30,000  Level Cleveland Center
Tue 06:58:33 AM 40.7619 -80.7878 301° West 438 504 30,000  Level Cleveland Center
Tue 06:59:34 AM 40.8228 -80.9269 300° West 439 505 30,000  Level Cleveland Center
Tue 07:00:35 AM 40.8869 -81.0711 301° West 439 505 30,000  Level Cleveland Center
Tue 07:01:37 AM 40.9467 -81.2086 300° West 432 497 30,000  Level Cleveland Center
Tue 07:02:38 AM 41.0072 -81.3467 300° West 430 495 30,000  Level Cleveland Center
Tue 07:03:39 AM 41.0694 -81.4906 300° West 440 506 30,000  Level Cleveland Center
Tue 07:04:41 AM 41.1256 -81.6181 300° West 440 506 30,000  Level Cleveland Center
Tue 07:05:42 AM 41.1844 -81.7564 300° West 437 503 30,000  Level Cleveland Center
Tue 07:06:43 AM 41.2436 -81.8914 300° West 429 494 30,000  Level Cleveland Center
Tue 07:07:45 AM 41.3119 -82.0528 299° West 419 482 30,000  Level Cleveland Center
Tue 07:08:46 AM 41.3714 -82.1881 300° West 420 483 30,000  Level Cleveland Center
Tue 07:09:47 AM 41.4442 -82.3214 306° West 436 502 30,000  Level Cleveland Center
Tue 07:10:49 AM 41.5172 -82.4544 306° West 439 505 30,000  Level Cleveland Center
Tue 07:11:50 AM 41.5889 -82.5883 306° West 439 505 30,000  Level Cleveland Center
Tue 07:12:51 AM 41.6575 -82.7175 305° West 439 505 30,000  Level Cleveland Center
Tue 07:13:53 AM 41.7278 -82.8483 306° West 438 504 30,000  Level Cleveland Center
Tue 07:14:54 AM 41.7986 -82.9817 306° West 438 504 30,000  Level Cleveland Center
Tue 07:15:56 AM 41.8686 -83.1158 305° West 438 504 30,000  Level Cleveland Center
Tue 07:16:57 AM 41.9442 -83.2586 305° West 438 504 30,000  Level Cleveland Center
Tue 07:17:59 AM 42.0147 -83.3917 306° West 436 502 30,000  Level Cleveland Center
Tue 07:19:00 AM 42.0758 -83.5292 301° West 427 491 30,000  Level Cleveland Center
Tue 07:20:02 AM 42.1344 -83.6864 297° West 414 476 30,000  Level Cleveland Center
Tue 07:21:03 AM 42.1869 -83.8264 297° West 414 476 30,000  Level Cleveland Center
Tue 07:22:05 AM 42.2392 -83.9683 296° West 415 478 30,000  Level Cleveland Center
Tue 07:23:06 AM 42.2900 -84.1083 296° West 415 478 30,000  Level Cleveland Center
Tue 07:24:08 AM 42.3414 -84.2494 296° West 417 480 30,000  Level Cleveland Center
Tue 07:25:09 AM 42.3931 -84.3911 296° West 418 481 30,000  Level Cleveland Center
Tue 07:26:11 AM 42.4442 -84.5328 296° West 420 483 30,000  Level Cleveland Center
Tue 07:27:13 AM 42.4953 -84.6744 296° West 418 481 30,000  Level Cleveland Center
Tue 07:28:14 AM 42.5575 -84.8456 296° West 419 482 30,000  Level Cleveland Center
Tue 07:29:16 AM 42.6072 -84.9894 295° West 419 482 30,000  Level Cleveland Center
Tue 07:30:17 AM 42.6575 -85.1300 296° West 419 482 30,000  Level Cleveland Center
Tue 07:31:19 AM 42.7078 -85.2722 296° West 418 481 30,000  Level Cleveland Center
Tue 07:32:21 AM 42.7578 -85.4150 296° West 418 481 30,000  Level Cleveland Center
Tue 07:33:22 AM 42.7961 -85.5589 290° West 406 467 30,000  Level Cleveland Center
Tue 07:34:24 AM 42.8147 -85.7089 280° West 402 463 30,000  Level Cleveland Center
Tue 07:35:25 AM 42.8339 -85.8572 280° West 397 457 30,000  Level Cleveland Center
Tue 07:36:27 AM 42.8533 -86.0056 280° West 396 456 30,000  Level Cleveland Center
Tue 07:37:29 AM 42.8725 -86.1544 280° West 395 455 30,000  Level Cleveland Center
Tue 07:38:31 AM 42.8942 -86.3317 280° West 393 452 30,000  Level Cleveland Center
Tue 07:39:54 AM 42.9192 -86.5392 279° West 394 453 30,000  Level Chicago Center
Tue 07:40:56 AM 42.9364 -86.6889 279° West 396 456 30,000  Level Chicago Center
Tue 07:41:57 AM 42.9600 -86.8389 282° West 401 461 30,000  Level Chicago Center
Tue 07:42:58 AM 43.0131 -86.9853 296° West 425 489 30,000  Level Chicago Center
Tue 07:44:00 AM 43.0664 -87.1283 297° West 422 486 30,000  Level Chicago Center
Tue 07:45:01 AM 43.1203 -87.2708 297° West 423 487 30,000  Level Chicago Center
Tue 07:46:03 AM 43.1806 -87.4308 297° West 413 475 30,000  Level Chicago Center
Tue 07:47:04 AM 43.2344 -87.5750 297° West 422 486 30,000  Level Chicago Center
Tue 07:48:06 AM 43.2869 -87.7144 297° West 414 476 30,000  Level Chicago Center
Tue 07:49:07 AM 43.3406 -87.8578 297° West 417 480 30,000  Level Chicago Center
Tue 07:50:09 AM 43.3928 -88.0000 297° West 417 480 30,000  Level Chicago Center
Tue 07:51:10 AM 43.4444 -88.1431 296° West 418 481 30,000  Level Chicago Center
Tue 07:52:12 AM 43.5044 -88.3142 296° West 417 480 30,000  Level Chicago Center
Tue 07:53:13 AM 43.5531 -88.4517 296° West 416 479 30,000  Level Chicago Center
Tue 07:54:15 AM 43.6031 -88.5894 297° West 410 472 30,000  Level Chicago Center
Tue 07:55:17 AM 43.6531 -88.7319 296° West 414 476 30,000  Level Chicago Center
Tue 07:56:18 AM 43.7036 -88.8747 296° West 416 479 30,000  Level Chicago Center
Tue 07:57:20 AM 43.7625 -89.0442 296° West 413 475 30,000  Level Chicago Center
Tue 07:58:22 AM 43.8128 -89.1864 296° West 413 475 30,000  Level Chicago Center
Tue 07:59:23 AM 43.8614 -89.3303 295° West 413 475 30,000  Level Chicago Center
Tue 08:00:25 AM 43.9103 -89.4725 296° West 412 474 30,000  Level Chicago Center
Tue 08:01:27 AM 43.9583 -89.6158 295° West 412 474 30,000  Level Chicago Center
Tue 08:02:29 AM 44.0069 -89.7578 296° West 411 473 30,000  Level Chicago Center
Tue 08:03:31 AM 44.0556 -89.8989 296° West 410 472 30,000  Level Chicago Center
Tue 08:04:32 AM 44.1258 -90.0536 302° West 400 460 30,000  Level Chicago Center
Tue 08:05:34 AM 44.1939 -90.1767 308° West 400 460 30,000  Level Chicago Center
Tue 08:06:36 AM 44.2492 -90.3061 301° West 399 459 30,000  Level Chicago Center
Tue 08:07:38 AM 44.3058 -90.4375 301° West 399 459 30,000  Level Chicago Center
Tue 08:08:40 AM 44.3597 -90.5686 300° West 398 458 30,000  Level Chicago Center
Tue 08:09:55 AM 44.4264 -90.7286 300° West 394 453 30,000  Level Minneapolis Center
Tue 08:10:56 AM 44.4886 -90.8847 299° West 388 447 30,000  Level Minneapolis Center
Tue 08:11:57 AM 44.5369 -91.0008 300° West 387 445 30,000  Level Minneapolis Center
Tue 08:12:59 AM 44.5883 -91.1311 299° West 386 444 30,000  Level Minneapolis Center
Tue 08:14:00 AM 44.6408 -91.2594 300° West 385 443 30,000  Level Minneapolis Center
Tue 08:15:01 AM 44.7036 -91.4136 300° West 384 442 30,000 -98 Level Minneapolis Center
Tue 08:16:02 AM 44.7533 -91.5403 299° West 376 433 29,800 -1,463 Descending Minneapolis Center
Tue 08:17:04 AM 44.8039 -91.6642 300° West 372 428 27,000 -3,659 Descending Minneapolis Center
Tue 08:18:05 AM 44.8519 -91.7886 299° West 367 422 22,300 -4,000 Descending Minneapolis Center
Tue 08:19:07 AM 44.9025 -91.9133 300° West 368 423 18,800 -3,366 Descending Minneapolis Center
Tue 08:20:08 AM 44.9486 -92.0300 299° West 347 399 15,400 -3,268 Descending Minneapolis Center
Tue 08:21:10 AM 44.9942 -92.1467 299° West 343 395 12,100 -2,146 Descending Minneapolis Center
Tue 08:22:11 AM 45.0400 -92.2636 299° West 343 395 11,000 -927 Descending Minneapolis Center
Tue 08:23:13 AM 45.0258 -92.4158 263° West 326 375 10,200 -829 Descending Minneapolis Center
Tue 08:24:14 AM 44.9942 -92.5150 246° West 276 318 9,300 -1,366 Descending Minneapolis Center
Tue 08:25:16 AM 44.9658 -92.6097 247° West 267 307 7,400 -1,122 Descending Minneapolis Center
Tue 08:26:17 AM 44.9369 -92.7022 246° West 262 302 7,000 -390 Descending Minneapolis Center
Tue 08:27:19 AM 44.9081 -92.7939 246° West 260 299 6,600 -927 Descending Minneapolis Center
Tue 08:28:20 AM 44.8814 -92.8797 246° West 245 282 5,100 -1,268 Descending Minneapolis Center
Tue 08:29:22 AM 44.8547 -92.9631 246° West 238 274 4,000 -919 Descending Minneapolis Center
Tue 08:30:24 AM 44.8364 -93.0503 254° West 186 214 3,200 -829 Descending Minneapolis Center
Tue 08:31:25 AM 44.8478 -93.1128 284° West 168 193 2,300 -829 Descending Minneapolis Center
Tue 08:32:27 AM 44.8653 -93.1572 299° West 135 155 1,500 -774 Descending Minneapolis Center

Login

Don't have an account? Register now (free) for customized features, flight alerts, and more!